EGHQ

Newquay Cornwall Airport

Newquay, United Kingdom
METAR EGHQ 241850Z 07004KT CAVOK 03/M02 Q1018
Observed Flight Rules
Feb-24 @ 18:50 UTC (an hour ago) Visual Flight Rules
Wind Visibility Clouds
70° at 4 knots 10,000+ meters
  • Clear skies
Temperatures Readings
Current 3°C / 37°F
Dewpoint -2°C / 28°F
Humidity 70%
Altimeter 30.06" Hg
Pressure 1018 hPa
Elevation 119
METAR EGHQ 241850Z 07004KT CAVOK 03/M02 Q1018
Observed Flight Rules
Feb-24 @ 18:50 UTC
(an hour ago)
VFR
Wind Visibility
70° at 4 knots 10,000+ meters
Clouds
  • Clear skies
Temperature Dewpoint
3°C / 37°F -2°C / 28°F
Humidity Altimeter Pressure
70% 30.06" Hg 1018 hPa